Flight Track Log - Related Links

Times and Time Zones

All times are in EST time to prevent confusion due to time zone crossing. See the EJA831 flight status page for this flight to view local times or setup timezone preferences in your user account.

Time Position Orientation Groundspeed Altitude Reporting Facility
EST Latitude Longitude Course Direction KTS MPH feet Rate Location/Type
Sun 10:47:30 AM 30.0528 -90.0297 353° North 135 155 500  Level Houston Center
Sun 10:48:13 AM 30.0925 -90.0353 353° North 220 253 2,000 1,846 Climbing Houston Center
Sun 10:48:35 AM 30.1122 -90.0278 18° North 324 373 2,500 2,096 Climbing Houston Center
Sun 10:49:36 AM 30.1753 -89.9897 28° Northeast 250 288 4,900 1,770 Climbing Houston Center
Sun 10:50:37 AM 30.2442 -89.9447 29° Northeast 268 308 6,100 2,195 Climbing Houston Center
Sun 10:51:39 AM 30.3153 -89.8961 31° Northeast 287 330 9,400 3,171 Climbing Houston Center
Sun 10:52:40 AM 30.3853 -89.8294 39° Northeast 310 357 12,600 2,902 Climbing Houston Center
Sun 10:53:41 AM 30.4544 -89.7553 43° Northeast 324 373 15,300 2,098 Climbing Houston Center
Sun 10:54:43 AM 30.5272 -89.6742 44° Northeast 351 404 16,900 1,561 Climbing Houston Center
Sun 10:55:44 AM 30.6067 -89.5856 44° Northeast 385 443 18,500 1,820 Climbing Houston Center
Sun 10:56:45 AM 30.6511 -89.4689 66° East 398 458 20,600 2,164 Climbing Houston Center
Sun 10:57:46 AM 30.6894 -89.3167 74° East 406 467 22,900 1,951 Climbing Houston Center
Sun 10:58:48 AM 30.7225 -89.1872 73° East 415 478 24,600 1,610 Climbing Houston Center
Sun 10:59:49 AM 30.7775 -89.0631 63° Northeast 429 494 26,200 1,574 Climbing Houston Center
Sun 11:00:50 AM 30.8419 -88.9408 58° Northeast 446 513 27,800 1,463 Climbing Houston Center
Sun 11:01:52 AM 30.9089 -88.8200 57° Northeast 444 511 29,200 1,366 Climbing Houston Center
Sun 11:02:53 AM 30.9767 -88.6950 58° Northeast 452 520 30,600 1,377 Climbing Houston Center
Sun 11:03:54 AM 31.0428 -88.5722 58° Northeast 455 524 32,000 1,366 Climbing Houston Center
Sun 11:04:56 AM 31.1117 -88.4472 57° Northeast 456 525 33,400 1,366 Climbing Houston Center
Sun 11:05:57 AM 31.1808 -88.3242 57° Northeast 457 526 34,800 1,426 Climbing Houston Center
Sun 11:06:58 AM 31.2508 -88.1869 59° Northeast 457 526 36,300 1,220 Climbing Houston Center
Sun 11:08:00 AM 31.3181 -88.0600 58° Northeast 456 525 37,300 976 Climbing Houston Center
Sun 11:09:01 AM 31.3867 -87.9331 58° Northeast 458 527 38,300 836 Climbing Houston Center
Sun 11:10:02 AM 31.4542 -87.8033 59° Northeast 462 532 39,000 341 Climbing Houston Center
Sun 11:11:04 AM 31.5392 -87.6431 58° Northeast 478 550 39,000  Level Houston Center
Sun 11:12:05 AM 31.6131 -87.5019 58° Northeast 500 575 39,000  Level Houston Center
Sun 11:13:06 AM 31.6936 -87.3581 57° Northeast 497 572 39,000  Level Atlanta Center
Sun 11:14:06 AM 31.7533 -87.2283 62° Northeast 503 579 39,000  Level Atlanta Center
Sun 11:15:06 AM 31.8300 -87.0869 57° Northeast 503 579 39,000  Level Atlanta Center
Sun 11:16:06 AM 31.9044 -86.9428 59° Northeast 503 579 39,000  Level Atlanta Center
Sun 11:17:06 AM 31.9786 -86.8031 58° Northeast 503 579 39,000  Level Atlanta Center
Sun 11:18:06 AM 32.0636 -86.6439 58° Northeast 513 590 39,000  Level Atlanta Center
Sun 11:19:06 AM 32.1417 -86.5017 57° Northeast 513 590 39,000  Level Atlanta Center
Sun 11:20:06 AM 32.2006 -86.3706 62° Northeast 513 590 39,000  Level Atlanta Center
Sun 11:21:06 AM 32.2844 -86.2281 55° Northeast 506 582 39,000  Level Atlanta Center
Sun 11:22:06 AM 32.3722 -86.0972 52° Northeast 512 589 39,000  Level Atlanta Center
Sun 11:23:06 AM 32.4578 -85.9689 52° Northeast 512 589 39,000  Level Atlanta Center
Sun 11:24:06 AM 32.5625 -85.8183 50° Northeast 512 589 39,000  Level Atlanta Center
Sun 11:25:06 AM 32.6500 -85.6844 52° Northeast 517 595 39,000  Level Atlanta Center
Sun 11:26:06 AM 32.7392 -85.5503 52° Northeast 511 588 39,000  Level Atlanta Center
Sun 11:27:06 AM 32.8264 -85.4133 53° Northeast 511 588 39,000  Level Atlanta Center
Sun 11:28:06 AM 32.9156 -85.2811 51° Northeast 511 588 39,000  Level Atlanta Center
Sun 11:29:06 AM 32.9897 -85.1731 51° Northeast 511 588 39,000  Level Atlanta Center
Sun 11:30:06 AM 33.0953 -85.0183 51° Northeast 512 589 39,000  Level Atlanta Center
Sun 11:31:06 AM 33.1819 -84.8828 53° Northeast 512 589 39,000  Level Atlanta Center
Sun 11:32:06 AM 33.2703 -84.7469 52° Northeast 512 589 39,000  Level Atlanta Center
Sun 11:33:06 AM 33.3483 -84.6258 52° Northeast 512 589 39,000  Level Atlanta Center
Sun 11:34:06 AM 33.4364 -84.4869 53° Northeast 512 589 39,000  Level Atlanta Center
Sun 11:35:06 AM 33.5247 -84.3478 53° Northeast 512 589 39,000  Level Atlanta Center
Sun 11:36:06 AM 33.6125 -84.2133 52° Northeast 512 589 39,000  Level Atlanta Center
Sun 11:37:06 AM 33.7025 -84.0689 53° Northeast 517 595 39,000  Level Atlanta Center
Sun 11:38:06 AM 33.7922 -83.9314 52° Northeast 522 601 39,000  Level Atlanta Center
Sun 11:39:06 AM 33.8794 -83.7936 53° Northeast 522 601 39,000  Level Atlanta Center
Sun 11:40:06 AM 33.9689 -83.6531 52° Northeast 522 601 39,000 -450 Level Atlanta Center
Sun 11:41:06 AM 34.0561 -83.5122 53° Northeast 527 606 38,100 -950 Descending Atlanta Center
Sun 11:42:06 AM 34.1411 -83.3761 53° Northeast 516 594 37,100 -1,000 Descending Atlanta Center
Sun 11:43:06 AM 34.2278 -83.2397 52° Northeast 516 594 36,100 -1,000 Descending Atlanta Center
Sun 11:44:06 AM 34.3144 -83.0981 53° Northeast 511 588 35,100 -1,000 Descending Atlanta Center
Sun 11:45:06 AM 34.4092 -82.9486 52° Northeast 511 588 34,100 -1,000 Descending Atlanta Center
Sun 11:46:06 AM 34.4956 -82.8039 54° Northeast 516 594 33,100 -1,000 Descending Atlanta Center
Sun 11:47:06 AM 34.5817 -82.6689 52° Northeast 516 594 32,100 -1,000 Descending Atlanta Center
Sun 11:48:06 AM 34.6597 -82.5464 52° Northeast 510 587 31,100 -1,000 Descending Atlanta Center
Sun 11:49:06 AM 34.7456 -82.4033 54° Northeast 510 587 30,100 -1,000 Descending Atlanta Center
Sun 11:50:06 AM 34.8461 -82.2772 46° Northeast 510 587 29,100 -1,000 Descending Atlanta Center
Sun 11:51:06 AM 34.9506 -82.1533 44° Northeast 515 593 28,100 -1,000 Descending Atlanta Center
Sun 11:52:06 AM 35.0508 -82.0294 45° Northeast 515 593 27,100 -1,100 Descending Atlanta Center
Sun 11:53:06 AM 35.1511 -81.9100 44° Northeast 509 586 25,900 -1,150 Descending Atlanta Center
Sun 11:54:06 AM 35.2469 -81.7931 45° Northeast 490 564 24,800 -950 Descending Atlanta Center
Sun 11:55:06 AM 35.3472 -81.6836 42° Northeast 484 557 24,000 -400 Descending Atlanta Center
Sun 11:56:06 AM 35.4581 -81.5936 33° Northeast 478 550 24,000  Level Atlanta Center
Sun 11:57:06 AM 35.5669 -81.5086 32° Northeast 472 543 24,000 -700 Level Atlanta Center
Sun 11:58:06 AM 35.6758 -81.4208 33° Northeast 465 535 22,600 -1,600 Descending Atlanta Center
Sun 11:59:06 AM 35.7925 -81.3275 33° Northeast 460 529 20,800 -2,150 Descending Atlanta Center
Sun 12:00:06 PM 35.8908 -81.2475 33° Northeast 442 509 18,300 -2,300 Descending Atlanta Center
Sun 12:01:06 PM 35.9872 -81.1672 34° Northeast 432 497 16,200 -2,350 Descending Atlanta Center
Sun 12:02:06 PM 36.0514 -81.0622 53° Northeast 400 460 13,600 -2,350 Descending Atlanta Center
Sun 12:03:06 PM 36.0817 -80.9325 74° East 382 440 11,500 -1,250 Descending Atlanta Center
Sun 12:04:06 PM 36.1056 -80.8083 77° East 373 429 11,100 -250 Descending Atlanta Center
Sun 12:05:06 PM 36.1314 -80.6839 76° East 368 423 11,000 -50 Descending Atlanta Center
Sun 12:06:06 PM 36.1178 -80.5714 98° East 356 410 11,000 -1,200 Level Atlanta Center
Sun 12:07:06 PM 36.0892 -80.4517 106° East 337 388 8,600 -2,350 Descending Atlanta Center
Sun 12:08:06 PM 36.0594 -80.3606 112° Southeast 309 356 6,300 -2,350 Descending Atlanta Center
Sun 12:09:06 PM 36.0197 -80.2853 123° Southeast 283 326 3,900 -1,600 Descending Atlanta Center
Sun 12:10:06 PM 35.9761 -80.2283 133° Southeast 250 288 3,100 -400 Descending Atlanta Center
Sun 12:11:06 PM 35.9494 -80.1783 123° Southeast 215 247 3,100  Level Atlanta Center
Sun 12:12:06 PM 35.9642 -80.1136 74° East 189 217 3,100  Level Atlanta Center
Sun 12:14:00 PM 36.1000 -79.9333 15° North  Level FlightAware Approximate
Sun 12:21:00 PM 36.1013 -79.9411 15° North  Level Estimated
Sun 12:22:00 PM 36.1000 -79.9333 15° North  Level FlightAware Approximate
Sun 12:23:00 PM 36.1013 -79.9411 15° North  Level Estimated
Sun 12:24:00 PM 36.1000 -79.9333 15° North  Level FlightAware Approximate
Sun 12:25:00 PM 36.1013 -79.9411 15° North  Level Estimated

Login

Don't have an account? Register now (free) for customized features, flight alerts, and more!